sensor_id;sensor_type;location;lat;lon;timestamp;temperature;humidity
21331;DHT22;10824;51.632;4.950;2022-09-14T00:01:22;17.40;99.90
21331;DHT22;10824;51.632;4.950;2022-09-14T00:03:59;17.30;99.90
21331;DHT22;10824;51.632;4.950;2022-09-14T00:06:28;17.30;99.90
21331;DHT22;10824;51.632;4.950;2022-09-14T00:08:58;17.30;99.90
21331;DHT22;10824;51.632;4.950;2022-09-14T00:11:30;17.30;99.90
21331;DHT22;10824;51.632;4.950;2022-09-14T00:13:58;17.30;99.90
21331;DHT22;10824;51.632;4.950;2022-09-14T00:16:28;17.30;99.90
21331;DHT22;10824;51.632;4.950;2022-09-14T00:18:58;17.20;99.90
21331;DHT22;10824;51.632;4.950;2022-09-14T00:21:27;17.20;99.90
21331;DHT22;10824;51.632;4.950;2022-09-14T00:23:54;17.20;99.90
21331;DHT22;10824;51.632;4.950;2022-09-14T00:26:22;17.20;99.90
21331;DHT22;10824;51.632;4.950;2022-09-14T00:28:52;17.10;99.90
21331;DHT22;10824;51.632;4.950;2022-09-14T00:31:20;17.00;99.90
21331;DHT22;10824;51.632;4.950;2022-09-14T00:33:48;17.00;99.90
21331;DHT22;10824;51.632;4.950;2022-09-14T00:36:24;17.00;99.90
21331;DHT22;10824;51.632;4.950;2022-09-14T00:38:53;17.00;99.90
21331;DHT22;10824;51.632;4.950;2022-09-14T00:41:25;17.00;99.90
21331;DHT22;10824;51.632;4.950;2022-09-14T00:44:06;16.90;99.90
21331;DHT22;10824;51.632;4.950;2022-09-14T00:46:41;17.00;99.90
21331;DHT22;10824;51.632;4.950;2022-09-14T00:49:14;17.00;99.90
21331;DHT22;10824;51.632;4.950;2022-09-14T00:51:48;16.80;99.90
21331;DHT22;10824;51.632;4.950;2022-09-14T00:54:16;16.90;99.90
21331;DHT22;10824;51.632;4.950;2022-09-14T00:56:45;16.80;99.90
21331;DHT22;10824;51.632;4.950;2022-09-14T00:59:25;16.70;99.90
21331;DHT22;10824;51.632;4.950;2022-09-14T01:01:53;16.70;99.90
21331;DHT22;10824;51.632;4.950;2022-09-14T01:04:21;16.60;99.90
21331;DHT22;10824;51.632;4.950;2022-09-14T01:07:05;16.60;99.90
21331;DHT22;10824;51.632;4.950;2022-09-14T01:09:49;16.60;99.90
21331;DHT22;10824;51.632;4.950;2022-09-14T01:12:34;16.70;99.90
21331;DHT22;10824;51.632;4.950;2022-09-14T01:18:03;16.30;99.90
21331;DHT22;10824;51.632;4.950;2022-09-14T01:34:48;16.40;99.90
21331;DHT22;10824;51.632;4.950;2022-09-14T01:40:19;16.40;99.90
21331;DHT22;10824;51.632;4.950;2022-09-14T01:42:54;16.40;99.90
21331;DHT22;10824;51.632;4.950;2022-09-14T01:45:23;16.30;99.90
21331;DHT22;10824;51.632;4.950;2022-09-14T01:47:59;16.30;99.90
21331;DHT22;10824;51.632;4.950;2022-09-14T01:50:49;16.40;99.90
21331;DHT22;10824;51.632;4.950;2022-09-14T01:53:34;16.30;99.90
21331;DHT22;10824;51.632;4.950;2022-09-14T01:56:09;16.30;99.90
21331;DHT22;10824;51.632;4.950;2022-09-14T01:58:47;16.30;99.90
21331;DHT22;10824;51.632;4.950;2022-09-14T02:01:21;16.30;99.90
21331;DHT22;10824;51.632;4.950;2022-09-14T02:03:52;16.30;99.90
21331;DHT22;10824;51.632;4.950;2022-09-14T02:06:38;16.20;99.90
21331;DHT22;10824;51.632;4.950;2022-09-14T02:09:09;16.10;99.90
21331;DHT22;10824;51.632;4.950;2022-09-14T02:11:37;16.20;99.90
21331;DHT22;10824;51.632;4.950;2022-09-14T02:14:05;16.20;99.90
21331;DHT22;10824;51.632;4.950;2022-09-14T02:16:32;16.10;99.90
21331;DHT22;10824;51.632;4.950;2022-09-14T02:19:01;16.10;99.90
21331;DHT22;10824;51.632;4.950;2022-09-14T02:21:30;16.10;99.90
21331;DHT22;10824;51.632;4.950;2022-09-14T02:23:58;16.20;99.90
21331;DHT22;10824;51.632;4.950;2022-09-14T02:26:27;16.10;99.90
21331;DHT22;10824;51.632;4.950;2022-09-14T02:28:55;16.10;99.90
21331;DHT22;10824;51.632;4.950;2022-09-14T02:44:42;16.00;99.90
21331;DHT22;10824;51.632;4.950;2022-09-14T02:47:31;16.00;99.90
21331;DHT22;10824;51.632;4.950;2022-09-14T02:50:10;16.00;99.90
21331;DHT22;10824;51.632;4.950;2022-09-14T02:55:18;15.90;99.90
21331;DHT22;10824;51.632;4.950;2022-09-14T02:58:06;16.00;99.90
21331;DHT22;10824;51.632;4.950;2022-09-14T03:00:41;16.00;99.90
21331;DHT22;10824;51.632;4.950;2022-09-14T03:03:10;15.90;99.90
21331;DHT22;10824;51.632;4.950;2022-09-14T03:05:37;16.00;99.90
21331;DHT22;10824;51.632;4.950;2022-09-14T03:08:04;16.00;99.90
21331;DHT22;10824;51.632;4.950;2022-09-14T03:10:32;16.00;99.90
21331;DHT22;10824;51.632;4.950;2022-09-14T03:12:59;15.90;99.90
21331;DHT22;10824;51.632;4.950;2022-09-14T03:15:27;15.90;99.90
21331;DHT22;10824;51.632;4.950;2022-09-14T03:17:55;15.80;99.90
21331;DHT22;10824;51.632;4.950;2022-09-14T03:20:26;15.80;99.90
21331;DHT22;10824;51.632;4.950;2022-09-14T03:22:53;15.90;99.90
21331;DHT22;10824;51.632;4.950;2022-09-14T03:25:21;15.80;99.90
21331;DHT22;10824;51.632;4.950;2022-09-14T03:27:56;15.80;99.90
21331;DHT22;10824;51.632;4.950;2022-09-14T03:30:24;15.80;99.90
21331;DHT22;10824;51.632;4.950;2022-09-14T03:32:51;15.80;99.90
21331;DHT22;10824;51.632;4.950;2022-09-14T03:35:18;15.80;99.90
21331;DHT22;10824;51.632;4.950;2022-09-14T03:37:46;15.80;99.90
21331;DHT22;10824;51.632;4.950;2022-09-14T03:40:15;15.80;99.90
21331;DHT22;10824;51.632;4.950;2022-09-14T03:42:48;15.80;99.90
21331;DHT22;10824;51.632;4.950;2022-09-14T03:45:16;15.80;99.90
21331;DHT22;10824;51.632;4.950;2022-09-14T03:47:44;15.80;99.90
21331;DHT22;10824;51.632;4.950;2022-09-14T03:50:13;15.80;99.90
21331;DHT22;10824;51.632;4.950;2022-09-14T03:52:40;15.80;99.90
21331;DHT22;10824;51.632;4.950;2022-09-14T03:55:08;15.70;99.90
21331;DHT22;10824;51.632;4.950;2022-09-14T03:57:35;15.80;99.90
21331;DHT22;10824;51.632;4.950;2022-09-14T04:00:04;15.80;99.90
21331;DHT22;10824;51.632;4.950;2022-09-14T04:02:37;15.70;99.90
21331;DHT22;10824;51.632;4.950;2022-09-14T04:05:04;15.80;99.90
21331;DHT22;10824;51.632;4.950;2022-09-14T04:07:32;15.70;99.90
21331;DHT22;10824;51.632;4.950;2022-09-14T04:09:59;15.80;99.90
21331;DHT22;10824;51.632;4.950;2022-09-14T04:12:26;15.80;99.90
21331;DHT22;10824;51.632;4.950;2022-09-14T04:14:53;15.70;99.90
21331;DHT22;10824;51.632;4.950;2022-09-14T04:17:20;15.80;99.90
21331;DHT22;10824;51.632;4.950;2022-09-14T04:19:50;15.70;99.90
21331;DHT22;10824;51.632;4.950;2022-09-14T04:22:18;15.70;99.90
21331;DHT22;10824;51.632;4.950;2022-09-14T04:24:45;15.70;99.90
21331;DHT22;10824;51.632;4.950;2022-09-14T04:27:12;15.70;99.90
21331;DHT22;10824;51.632;4.950;2022-09-14T04:29:39;15.70;99.90
21331;DHT22;10824;51.632;4.950;2022-09-14T04:32:06;15.70;99.90
21331;DHT22;10824;51.632;4.950;2022-09-14T04:34:33;15.70;99.90
21331;DHT22;10824;51.632;4.950;2022-09-14T04:37:01;15.60;99.90
21331;DHT22;10824;51.632;4.950;2022-09-14T04:39:28;15.60;99.90
21331;DHT22;10824;51.632;4.950;2022-09-14T04:41:56;15.70;99.90
21331;DHT22;10824;51.632;4.950;2022-09-14T04:44:23;15.60;99.90
21331;DHT22;10824;51.632;4.950;2022-09-14T04:46:51;15.60;99.90
21331;DHT22;10824;51.632;4.950;2022-09-14T04:49:18;15.70;99.90
21331;DHT22;10824;51.632;4.950;2022-09-14T04:51:47;15.70;99.90
21331;DHT22;10824;51.632;4.950;2022-09-14T04:54:16;15.70;99.90
21331;DHT22;10824;51.632;4.950;2022-09-14T04:56:44;15.60;99.90
21331;DHT22;10824;51.632;4.950;2022-09-14T04:59:11;15.70;99.90
21331;DHT22;10824;51.632;4.950;2022-09-14T05:01:40;15.70;99.90
21331;DHT22;10824;51.632;4.950;2022-09-14T05:04:09;15.70;99.90
21331;DHT22;10824;51.632;4.950;2022-09-14T05:06:38;15.70;99.90
21331;DHT22;10824;51.632;4.950;2022-09-14T05:09:11;15.70;99.90
21331;DHT22;10824;51.632;4.950;2022-09-14T05:11:39;15.80;99.90
21331;DHT22;10824;51.632;4.950;2022-09-14T05:14:08;15.70;99.90
21331;DHT22;10824;51.632;4.950;2022-09-14T05:16:36;15.70;99.90
21331;DHT22;10824;51.632;4.950;2022-09-14T05:19:07;15.60;99.90
21331;DHT22;10824;51.632;4.950;2022-09-14T05:21:36;15.60;99.90
21331;DHT22;10824;51.632;4.950;2022-09-14T05:24:13;15.60;99.90
21331;DHT22;10824;51.632;4.950;2022-09-14T05:26:42;15.60;99.90
21331;DHT22;10824;51.632;4.950;2022-09-14T05:29:15;15.70;99.90
21331;DHT22;10824;51.632;4.950;2022-09-14T05:31:42;15.70;99.90
21331;DHT22;10824;51.632;4.950;2022-09-14T05:34:10;15.60;99.90
21331;DHT22;10824;51.632;4.950;2022-09-14T05:36:38;15.60;99.90
21331;DHT22;10824;51.632;4.950;2022-09-14T05:39:06;15.60;99.90
21331;DHT22;10824;51.632;4.950;2022-09-14T05:41:34;15.60;99.90
21331;DHT22;10824;51.632;4.950;2022-09-14T05:44:04;15.60;99.90
21331;DHT22;10824;51.632;4.950;2022-09-14T05:46:32;15.60;99.90
21331;DHT22;10824;51.632;4.950;2022-09-14T05:48:59;15.70;99.90
21331;DHT22;10824;51.632;4.950;2022-09-14T05:51:27;15.70;99.90
21331;DHT22;10824;51.632;4.950;2022-09-14T05:53:56;15.60;99.90
21331;DHT22;10824;51.632;4.950;2022-09-14T05:56:25;15.60;99.90
21331;DHT22;10824;51.632;4.950;2022-09-14T05:58:53;15.60;99.90
21331;DHT22;10824;51.632;4.950;2022-09-14T06:01:25;15.60;99.90
21331;DHT22;10824;51.632;4.950;2022-09-14T06:03:54;15.60;99.90
21331;DHT22;10824;51.632;4.950;2022-09-14T06:06:22;15.60;99.90
21331;DHT22;10824;51.632;4.950;2022-09-14T06:08:51;15.60;99.90
21331;DHT22;10824;51.632;4.950;2022-09-14T06:11:25;15.50;99.90
21331;DHT22;10824;51.632;4.950;2022-09-14T06:13:53;15.50;99.90
21331;DHT22;10824;51.632;4.950;2022-09-14T06:16:22;15.60;99.90
21331;DHT22;10824;51.632;4.950;2022-09-14T06:18:50;15.60;99.90
21331;DHT22;10824;51.632;4.950;2022-09-14T06:21:18;15.50;99.90
21331;DHT22;10824;51.632;4.950;2022-09-14T06:23:47;15.40;99.90
21331;DHT22;10824;51.632;4.950;2022-09-14T06:26:15;15.50;99.90
21331;DHT22;10824;51.632;4.950;2022-09-14T06:28:42;15.50;99.90
21331;DHT22;10824;51.632;4.950;2022-09-14T06:31:13;15.50;99.90
21331;DHT22;10824;51.632;4.950;2022-09-14T06:33:44;15.60;99.90
21331;DHT22;10824;51.632;4.950;2022-09-14T06:36:14;15.60;99.90
21331;DHT22;10824;51.632;4.950;2022-09-14T06:38:41;15.60;99.90
21331;DHT22;10824;51.632;4.950;2022-09-14T06:41:12;15.60;99.90
21331;DHT22;10824;51.632;4.950;2022-09-14T06:43:41;15.50;99.90
21331;DHT22;10824;51.632;4.950;2022-09-14T06:46:14;15.60;99.90
21331;DHT22;10824;51.632;4.950;2022-09-14T06:48:51;15.60;99.90
21331;DHT22;10824;51.632;4.950;2022-09-14T06:51:20;15.60;99.90
21331;DHT22;10824;51.632;4.950;2022-09-14T06:53:48;15.60;99.90
21331;DHT22;10824;51.632;4.950;2022-09-14T06:56:17;15.40;99.90
21331;DHT22;10824;51.632;4.950;2022-09-14T06:58:45;15.50;99.90
21331;DHT22;10824;51.632;4.950;2022-09-14T07:01:16;15.40;99.90
21331;DHT22;10824;51.632;4.950;2022-09-14T07:03:46;15.50;99.90
21331;DHT22;10824;51.632;4.950;2022-09-14T07:06:15;15.40;99.90
21331;DHT22;10824;51.632;4.950;2022-09-14T07:08:43;15.30;99.90
21331;DHT22;10824;51.632;4.950;2022-09-14T07:11:11;15.40;99.90
21331;DHT22;10824;51.632;4.950;2022-09-14T07:13:39;15.40;99.90
21331;DHT22;10824;51.632;4.950;2022-09-14T07:16:07;15.40;99.90
21331;DHT22;10824;51.632;4.950;2022-09-14T07:18:34;15.40;99.90
21331;DHT22;10824;51.632;4.950;2022-09-14T07:21:03;15.40;99.90
21331;DHT22;10824;51.632;4.950;2022-09-14T07:23:32;15.40;99.90
21331;DHT22;10824;51.632;4.950;2022-09-14T07:26:11;15.40;99.90
21331;DHT22;10824;51.632;4.950;2022-09-14T07:28:39;15.50;99.90
21331;DHT22;10824;51.632;4.950;2022-09-14T07:31:41;15.50;99.90
21331;DHT22;10824;51.632;4.950;2022-09-14T07:34:09;15.50;99.90
21331;DHT22;10824;51.632;4.950;2022-09-14T07:36:37;15.60;99.90
21331;DHT22;10824;51.632;4.950;2022-09-14T07:39:06;15.50;99.90
21331;DHT22;10824;51.632;4.950;2022-09-14T07:41:34;15.60;99.90
21331;DHT22;10824;51.632;4.950;2022-09-14T07:44:03;15.60;99.90
21331;DHT22;10824;51.632;4.950;2022-09-14T07:46:36;15.50;99.90
21331;DHT22;10824;51.632;4.950;2022-09-14T07:49:08;15.50;99.90
21331;DHT22;10824;51.632;4.950;2022-09-14T07:51:36;15.50;99.90
21331;DHT22;10824;51.632;4.950;2022-09-14T07:54:07;15.60;99.90
21331;DHT22;10824;51.632;4.950;2022-09-14T07:56:34;15.60;99.90
21331;DHT22;10824;51.632;4.950;2022-09-14T07:59:02;15.50;99.90
21331;DHT22;10824;51.632;4.950;2022-09-14T08:01:50;15.50;99.90
21331;DHT22;10824;51.632;4.950;2022-09-14T08:04:18;15.60;99.90
21331;DHT22;10824;51.632;4.950;2022-09-14T08:06:45;15.60;99.90
21331;DHT22;10824;51.632;4.950;2022-09-14T08:09:12;15.60;99.90
21331;DHT22;10824;51.632;4.950;2022-09-14T08:11:40;15.60;99.90
21331;DHT22;10824;51.632;4.950;2022-09-14T08:14:08;15.60;99.90
21331;DHT22;10824;51.632;4.950;2022-09-14T08:16:37;15.60;99.90
21331;DHT22;10824;51.632;4.950;2022-09-14T08:19:11;15.60;99.90
21331;DHT22;10824;51.632;4.950;2022-09-14T08:21:42;15.60;99.90
21331;DHT22;10824;51.632;4.950;2022-09-14T08:24:15;15.60;99.90
21331;DHT22;10824;51.632;4.950;2022-09-14T08:26:44;15.60;99.90
21331;DHT22;10824;51.632;4.950;2022-09-14T08:29:12;15.60;99.90
21331;DHT22;10824;51.632;4.950;2022-09-14T08:31:40;15.60;99.90
21331;DHT22;10824;51.632;4.950;2022-09-14T08:34:08;15.60;99.90
21331;DHT22;10824;51.632;4.950;2022-09-14T08:36:38;15.60;99.90
21331;DHT22;10824;51.632;4.950;2022-09-14T08:39:07;15.60;99.90
21331;DHT22;10824;51.632;4.950;2022-09-14T08:47:08;15.60;99.90
21331;DHT22;10824;51.632;4.950;2022-09-14T08:52:27;15.70;99.90
21331;DHT22;10824;51.632;4.950;2022-09-14T08:54:58;15.70;99.90
21331;DHT22;10824;51.632;4.950;2022-09-14T08:57:41;15.70;99.90
21331;DHT22;10824;51.632;4.950;2022-09-14T09:00:13;15.70;99.90
21331;DHT22;10824;51.632;4.950;2022-09-14T09:05:51;15.60;99.90
21331;DHT22;10824;51.632;4.950;2022-09-14T09:08:29;15.70;99.90
21331;DHT22;10824;51.632;4.950;2022-09-14T09:10:59;15.70;99.90
21331;DHT22;10824;51.632;4.950;2022-09-14T09:13:31;15.80;99.90
21331;DHT22;10824;51.632;4.950;2022-09-14T09:16:02;15.70;99.90
21331;DHT22;10824;51.632;4.950;2022-09-14T09:21:12;15.60;99.90
21331;DHT22;10824;51.632;4.950;2022-09-14T09:23:41;15.60;99.90
21331;DHT22;10824;51.632;4.950;2022-09-14T09:28:57;15.70;99.90
21331;DHT22;10824;51.632;4.950;2022-09-14T09:31:40;15.60;99.90
21331;DHT22;10824;51.632;4.950;2022-09-14T09:34:30;15.80;99.90
21331;DHT22;10824;51.632;4.950;2022-09-14T09:37:16;15.90;99.90
21331;DHT22;10824;51.632;4.950;2022-09-14T09:39:45;15.80;99.90
21331;DHT22;10824;51.632;4.950;2022-09-14T09:42:24;15.70;99.90
21331;DHT22;10824;51.632;4.950;2022-09-14T09:45:04;15.60;99.90
21331;DHT22;10824;51.632;4.950;2022-09-14T09:47:37;15.70;99.90
21331;DHT22;10824;51.632;4.950;2022-09-14T09:50:16;15.70;99.90
21331;DHT22;10824;51.632;4.950;2022-09-14T09:52:55;15.90;99.90
21331;DHT22;10824;51.632;4.950;2022-09-14T09:55:27;15.90;99.90
21331;DHT22;10824;51.632;4.950;2022-09-14T09:58:35;15.80;99.90
21331;DHT22;10824;51.632;4.950;2022-09-14T10:01:16;15.90;99.90
21331;DHT22;10824;51.632;4.950;2022-09-14T10:04:20;15.90;99.90
21331;DHT22;10824;51.632;4.950;2022-09-14T10:06:50;15.80;99.90
21331;DHT22;10824;51.632;4.950;2022-09-14T10:09:24;15.90;99.90
21331;DHT22;10824;51.632;4.950;2022-09-14T10:12:03;15.90;99.90
21331;DHT22;10824;51.632;4.950;2022-09-14T10:14:33;16.00;99.90
21331;DHT22;10824;51.632;4.950;2022-09-14T10:17:21;15.90;99.90
21331;DHT22;10824;51.632;4.950;2022-09-14T10:19:53;16.00;99.90
21331;DHT22;10824;51.632;4.950;2022-09-14T10:22:31;16.00;99.90
21331;DHT22;10824;51.632;4.950;2022-09-14T10:24:59;16.10;99.90
21331;DHT22;10824;51.632;4.950;2022-09-14T10:27:35;16.00;99.90
21331;DHT22;10824;51.632;4.950;2022-09-14T10:30:26;16.00;99.90
21331;DHT22;10824;51.632;4.950;2022-09-14T10:33:01;16.00;99.90
21331;DHT22;10824;51.632;4.950;2022-09-14T10:35:36;16.00;99.90
21331;DHT22;10824;51.632;4.950;2022-09-14T10:46:54;16.20;99.90
21331;DHT22;10824;51.632;4.950;2022-09-14T10:58:53;16.20;99.90
21331;DHT22;10824;51.632;4.950;2022-09-14T11:01:42;16.20;99.90
21331;DHT22;10824;51.632;4.950;2022-09-14T11:07:10;16.20;99.90
21331;DHT22;10824;51.632;4.950;2022-09-14T11:13:20;16.10;99.90
21331;DHT22;10824;51.632;4.950;2022-09-14T11:19:41;16.20;99.90
21331;DHT22;10824;51.632;4.950;2022-09-14T11:22:36;16.10;99.90
21331;DHT22;10824;51.632;4.950;2022-09-14T11:25:25;16.20;99.90
21331;DHT22;10824;51.632;4.950;2022-09-14T11:28:04;16.10;99.90
21331;DHT22;10824;51.632;4.950;2022-09-14T11:30:39;16.00;99.90
21331;DHT22;10824;51.632;4.950;2022-09-14T11:33:25;16.10;99.90
21331;DHT22;10824;51.632;4.950;2022-09-14T11:36:04;16.20;99.90
21331;DHT22;10824;51.632;4.950;2022-09-14T11:38:43;16.10;99.90
21331;DHT22;10824;51.632;4.950;2022-09-14T11:44:16;16.10;99.90
21331;DHT22;10824;51.632;4.950;2022-09-14T11:46:57;16.20;99.90
21331;DHT22;10824;51.632;4.950;2022-09-14T11:49:55;16.10;99.90
21331;DHT22;10824;51.632;4.950;2022-09-14T11:52:21;16.20;99.90
21331;DHT22;10824;51.632;4.950;2022-09-14T11:54:50;16.10;99.90
21331;DHT22;10824;51.632;4.950;2022-09-14T11:57:21;16.00;99.90
21331;DHT22;10824;51.632;4.950;2022-09-14T11:59:55;16.10;99.90
21331;DHT22;10824;51.632;4.950;2022-09-14T12:10:20;15.90;99.90
21331;DHT22;10824;51.632;4.950;2022-09-14T12:12:53;15.90;99.90
21331;DHT22;10824;51.632;4.950;2022-09-14T12:17:52;15.90;99.90
21331;DHT22;10824;51.632;4.950;2022-09-14T12:28:49;15.80;99.90
21331;DHT22;10824;51.632;4.950;2022-09-14T12:34:39;15.70;99.90
21331;DHT22;10824;51.632;4.950;2022-09-14T12:37:35;15.80;99.90
21331;DHT22;10824;51.632;4.950;2022-09-14T12:40:30;15.90;99.90
21331;DHT22;10824;51.632;4.950;2022-09-14T12:46:07;15.90;99.90
21331;DHT22;10824;51.632;4.950;2022-09-14T12:54:26;16.10;99.90
21331;DHT22;10824;51.632;4.950;2022-09-14T13:00:00;16.00;99.90
21331;DHT22;10824;51.632;4.950;2022-09-14T13:05:19;15.90;99.90
21331;DHT22;10824;51.632;4.950;2022-09-14T13:07:50;15.90;99.90
21331;DHT22;10824;51.632;4.950;2022-09-14T13:10:25;15.80;99.90
21331;DHT22;10824;51.632;4.950;2022-09-14T13:12:55;15.80;99.90
21331;DHT22;10824;51.632;4.950;2022-09-14T13:15:29;15.80;99.90
21331;DHT22;10824;51.632;4.950;2022-09-14T13:23:47;15.90;99.90
21331;DHT22;10824;51.632;4.950;2022-09-14T13:26:19;15.90;99.90
21331;DHT22;10824;51.632;4.950;2022-09-14T13:28:49;15.90;99.90
21331;DHT22;10824;51.632;4.950;2022-09-14T13:31:35;16.00;99.90
21331;DHT22;10824;51.632;4.950;2022-09-14T13:34:37;15.80;99.90
21331;DHT22;10824;51.632;4.950;2022-09-14T13:37:12;15.90;99.90
21331;DHT22;10824;51.632;4.950;2022-09-14T13:39:56;16.00;99.90
21331;DHT22;10824;51.632;4.950;2022-09-14T13:42:25;16.10;99.90
21331;DHT22;10824;51.632;4.950;2022-09-14T13:44:52;16.00;99.90
21331;DHT22;10824;51.632;4.950;2022-09-14T13:47:22;15.90;99.90
21331;DHT22;10824;51.632;4.950;2022-09-14T13:49:53;15.90;99.90
21331;DHT22;10824;51.632;4.950;2022-09-14T13:58:15;16.00;99.90
21331;DHT22;10824;51.632;4.950;2022-09-14T14:00:52;16.00;99.90
21331;DHT22;10824;51.632;4.950;2022-09-14T14:06:17;16.00;99.90
21331;DHT22;10824;51.632;4.950;2022-09-14T14:09:03;16.10;99.90
21331;DHT22;10824;51.632;4.950;2022-09-14T14:11:38;16.10;99.90
21331;DHT22;10824;51.632;4.950;2022-09-14T14:19:43;16.20;99.90
21331;DHT22;10824;51.632;4.950;2022-09-14T14:22:20;16.10;99.90
21331;DHT22;10824;51.632;4.950;2022-09-14T14:24:49;16.20;99.90
21331;DHT22;10824;51.632;4.950;2022-09-14T14:27:41;16.30;99.90
21331;DHT22;10824;51.632;4.950;2022-09-14T14:30:20;16.30;99.90
21331;DHT22;10824;51.632;4.950;2022-09-14T14:32:52;16.30;99.90
21331;DHT22;10824;51.632;4.950;2022-09-14T14:35:28;16.30;99.90
21331;DHT22;10824;51.632;4.950;2022-09-14T14:37:56;16.40;99.90
21331;DHT22;10824;51.632;4.950;2022-09-14T14:40:25;16.50;99.90
21331;DHT22;10824;51.632;4.950;2022-09-14T14:42:56;16.60;99.90
21331;DHT22;10824;51.632;4.950;2022-09-14T14:45:28;16.60;99.90
21331;DHT22;10824;51.632;4.950;2022-09-14T14:48:02;16.60;99.90
21331;DHT22;10824;51.632;4.950;2022-09-14T14:50:35;16.60;99.90
21331;DHT22;10824;51.632;4.950;2022-09-14T14:53:04;16.70;99.90
21331;DHT22;10824;51.632;4.950;2022-09-14T14:55:32;16.60;99.90
21331;DHT22;10824;51.632;4.950;2022-09-14T14:58:05;16.70;99.90
21331;DHT22;10824;51.632;4.950;2022-09-14T15:00:40;16.70;99.90
21331;DHT22;10824;51.632;4.950;2022-09-14T15:03:08;16.70;99.90
21331;DHT22;10824;51.632;4.950;2022-09-14T15:05:39;16.70;99.90
21331;DHT22;10824;51.632;4.950;2022-09-14T15:08:12;16.70;99.90
21331;DHT22;10824;51.632;4.950;2022-09-14T15:10:40;16.70;99.90
21331;DHT22;10824;51.632;4.950;2022-09-14T15:13:11;16.80;99.90
21331;DHT22;10824;51.632;4.950;2022-09-14T15:15:40;16.80;99.90
21331;DHT22;10824;51.632;4.950;2022-09-14T15:18:09;16.80;99.90
21331;DHT22;10824;51.632;4.950;2022-09-14T15:20:37;16.80;99.90
21331;DHT22;10824;51.632;4.950;2022-09-14T15:23:04;16.80;99.90
21331;DHT22;10824;51.632;4.950;2022-09-14T15:25:31;16.80;99.90
21331;DHT22;10824;51.632;4.950;2022-09-14T15:27:59;16.80;99.90
21331;DHT22;10824;51.632;4.950;2022-09-14T15:30:27;16.80;99.90
21331;DHT22;10824;51.632;4.950;2022-09-14T15:32:54;16.80;99.90
21331;DHT22;10824;51.632;4.950;2022-09-14T15:35:21;16.90;99.90
21331;DHT22;10824;51.632;4.950;2022-09-14T15:37:48;17.00;99.90
21331;DHT22;10824;51.632;4.950;2022-09-14T15:40:15;17.00;99.90
21331;DHT22;10824;51.632;4.950;2022-09-14T15:42:43;17.10;99.90
21331;DHT22;10824;51.632;4.950;2022-09-14T15:45:10;17.10;99.90
21331;DHT22;10824;51.632;4.950;2022-09-14T15:47:48;17.20;99.90
21331;DHT22;10824;51.632;4.950;2022-09-14T15:50:22;17.20;99.90
21331;DHT22;10824;51.632;4.950;2022-09-14T15:52:49;17.10;99.90
21331;DHT22;10824;51.632;4.950;2022-09-14T15:55:16;17.20;99.90
21331;DHT22;10824;51.632;4.950;2022-09-14T15:57:43;17.10;99.90
21331;DHT22;10824;51.632;4.950;2022-09-14T16:00:11;17.10;99.90
21331;DHT22;10824;51.632;4.950;2022-09-14T16:02:40;17.20;99.90
21331;DHT22;10824;51.632;4.950;2022-09-14T16:05:07;17.10;99.90
21331;DHT22;10824;51.632;4.950;2022-09-14T16:07:34;17.10;99.90
21331;DHT22;10824;51.632;4.950;2022-09-14T16:10:01;17.00;99.90
21331;DHT22;10824;51.632;4.950;2022-09-14T16:12:28;17.10;99.90
21331;DHT22;10824;51.632;4.950;2022-09-14T16:15:03;17.10;99.90
21331;DHT22;10824;51.632;4.950;2022-09-14T16:17:30;17.10;99.90
21331;DHT22;10824;51.632;4.950;2022-09-14T16:19:57;17.00;99.90
21331;DHT22;10824;51.632;4.950;2022-09-14T16:22:24;17.10;99.90
21331;DHT22;10824;51.632;4.950;2022-09-14T16:24:51;17.10;99.90
21331;DHT22;10824;51.632;4.950;2022-09-14T16:27:18;17.10;99.90
21331;DHT22;10824;51.632;4.950;2022-09-14T16:29:45;17.00;99.90
21331;DHT22;10824;51.632;4.950;2022-09-14T16:32:13;17.10;99.90
21331;DHT22;10824;51.632;4.950;2022-09-14T16:34:40;17.10;99.90
21331;DHT22;10824;51.632;4.950;2022-09-14T16:37:07;17.10;99.90
21331;DHT22;10824;51.632;4.950;2022-09-14T16:39:34;17.10;99.90
21331;DHT22;10824;51.632;4.950;2022-09-14T16:42:02;17.20;99.90
21331;DHT22;10824;51.632;4.950;2022-09-14T16:44:31;17.20;99.90
21331;DHT22;10824;51.632;4.950;2022-09-14T16:46:58;17.10;99.90
21331;DHT22;10824;51.632;4.950;2022-09-14T16:49:26;17.10;99.90
21331;DHT22;10824;51.632;4.950;2022-09-14T16:51:55;17.10;99.90
21331;DHT22;10824;51.632;4.950;2022-09-14T16:54:24;17.00;99.90
21331;DHT22;10824;51.632;4.950;2022-09-14T16:56:52;17.00;99.90
21331;DHT22;10824;51.632;4.950;2022-09-14T16:59:24;17.00;99.90
21331;DHT22;10824;51.632;4.950;2022-09-14T17:01:51;17.00;99.90
21331;DHT22;10824;51.632;4.950;2022-09-14T17:04:22;17.00;99.90
21331;DHT22;10824;51.632;4.950;2022-09-14T17:06:51;17.00;99.90
21331;DHT22;10824;51.632;4.950;2022-09-14T17:09:21;17.00;99.90
21331;DHT22;10824;51.632;4.950;2022-09-14T17:11:49;16.90;99.90
21331;DHT22;10824;51.632;4.950;2022-09-14T17:14:19;16.90;99.90
21331;DHT22;10824;51.632;4.950;2022-09-14T17:16:47;16.90;99.90
21331;DHT22;10824;51.632;4.950;2022-09-14T17:19:15;16.90;99.90
21331;DHT22;10824;51.632;4.950;2022-09-14T17:21:43;16.80;99.90
21331;DHT22;10824;51.632;4.950;2022-09-14T17:24:12;16.90;99.90
21331;DHT22;10824;51.632;4.950;2022-09-14T17:26:40;16.90;99.90
21331;DHT22;10824;51.632;4.950;2022-09-14T17:29:11;16.80;99.90
21331;DHT22;10824;51.632;4.950;2022-09-14T17:31:43;16.80;99.90
21331;DHT22;10824;51.632;4.950;2022-09-14T17:34:12;16.80;99.90
21331;DHT22;10824;51.632;4.950;2022-09-14T17:36:43;16.70;99.90
21331;DHT22;10824;51.632;4.950;2022-09-14T17:39:30;16.70;99.90
21331;DHT22;10824;51.632;4.950;2022-09-14T17:42:01;16.70;99.90
21331;DHT22;10824;51.632;4.950;2022-09-14T17:44:31;16.70;99.90
21331;DHT22;10824;51.632;4.950;2022-09-14T17:46:58;16.60;99.90
21331;DHT22;10824;51.632;4.950;2022-09-14T17:49:26;16.60;99.90
21331;DHT22;10824;51.632;4.950;2022-09-14T17:52:08;16.60;99.90
21331;DHT22;10824;51.632;4.950;2022-09-14T17:54:36;16.50;99.90
21331;DHT22;10824;51.632;4.950;2022-09-14T17:57:04;16.60;99.90
21331;DHT22;10824;51.632;4.950;2022-09-14T17:59:31;16.60;99.90
21331;DHT22;10824;51.632;4.950;2022-09-14T18:02:01;16.50;99.90
21331;DHT22;10824;51.632;4.950;2022-09-14T18:04:34;16.40;99.90
21331;DHT22;10824;51.632;4.950;2022-09-14T18:07:03;16.50;99.90
21331;DHT22;10824;51.632;4.950;2022-09-14T18:09:33;16.50;99.90
21331;DHT22;10824;51.632;4.950;2022-09-14T18:12:00;16.40;99.90
21331;DHT22;10824;51.632;4.950;2022-09-14T18:14:27;16.30;99.90
21331;DHT22;10824;51.632;4.950;2022-09-14T18:16:54;16.30;99.90
21331;DHT22;10824;51.632;4.950;2022-09-14T18:19:24;16.30;99.90